sensor_id;sensor_type;location;lat;lon;timestamp;temperature;humidity
18160;DHT22;9205;52.032;4.314;2024-02-26T00:00:45;6.60;1.00
18160;DHT22;9205;52.032;4.314;2024-02-26T00:03:13;6.40;1.00
18160;DHT22;9205;52.032;4.314;2024-02-26T00:05:41;6.50;1.00
18160;DHT22;9205;52.032;4.314;2024-02-26T00:08:08;6.40;1.00
18160;DHT22;9205;52.032;4.314;2024-02-26T00:10:35;6.50;1.00
18160;DHT22;9205;52.032;4.314;2024-02-26T00:13:02;6.30;1.00
18160;DHT22;9205;52.032;4.314;2024-02-26T00:15:30;6.40;1.00
18160;DHT22;9205;52.032;4.314;2024-02-26T00:17:57;6.50;1.00
18160;DHT22;9205;52.032;4.314;2024-02-26T00:20:26;6.40;1.00
18160;DHT22;9205;52.032;4.314;2024-02-26T00:22:53;6.60;1.00
18160;DHT22;9205;52.032;4.314;2024-02-26T00:25:20;6.50;1.00
18160;DHT22;9205;52.032;4.314;2024-02-26T00:27:47;6.40;1.00
18160;DHT22;9205;52.032;4.314;2024-02-26T00:30:14;6.60;1.00
18160;DHT22;9205;52.032;4.314;2024-02-26T00:32:42;6.50;1.00
18160;DHT22;9205;52.032;4.314;2024-02-26T00:35:09;6.40;1.00
18160;DHT22;9205;52.032;4.314;2024-02-26T00:37:38;6.40;1.00
18160;DHT22;9205;52.032;4.314;2024-02-26T00:40:06;6.40;1.00
18160;DHT22;9205;52.032;4.314;2024-02-26T00:42:35;6.40;99.90
18160;DHT22;9205;52.032;4.314;2024-02-26T00:45:03;6.50;99.90
18160;DHT22;9205;52.032;4.314;2024-02-26T00:47:30;6.60;99.90
18160;DHT22;9205;52.032;4.314;2024-02-26T00:49:57;6.60;99.90
18160;DHT22;9205;52.032;4.314;2024-02-26T00:52:24;6.40;99.90
18160;DHT22;9205;52.032;4.314;2024-02-26T00:54:54;6.40;99.90
18160;DHT22;9205;52.032;4.314;2024-02-26T00:57:21;6.40;99.90
18160;DHT22;9205;52.032;4.314;2024-02-26T00:59:48;6.50;99.90
18160;DHT22;9205;52.032;4.314;2024-02-26T01:02:16;6.40;99.90
18160;DHT22;9205;52.032;4.314;2024-02-26T01:04:43;6.40;99.90
18160;DHT22;9205;52.032;4.314;2024-02-26T01:07:10;6.40;99.90
18160;DHT22;9205;52.032;4.314;2024-02-26T01:09:37;6.50;99.90
18160;DHT22;9205;52.032;4.314;2024-02-26T01:12:06;6.40;99.90
18160;DHT22;9205;52.032;4.314;2024-02-26T01:14:34;6.40;99.90
18160;DHT22;9205;52.032;4.314;2024-02-26T01:17:01;6.40;99.90
18160;DHT22;9205;52.032;4.314;2024-02-26T01:19:28;6.60;99.90
18160;DHT22;9205;52.032;4.314;2024-02-26T01:21:55;6.40;52.20
18160;DHT22;9205;52.032;4.314;2024-02-26T01:24:22;6.50;19.00
18160;DHT22;9205;52.032;4.314;2024-02-26T01:26:49;6.40;1.00
18160;DHT22;9205;52.032;4.314;2024-02-26T01:29:18;6.60;1.00
18160;DHT22;9205;52.032;4.314;2024-02-26T01:31:45;6.60;1.00
18160;DHT22;9205;52.032;4.314;2024-02-26T01:34:12;6.40;1.00
18160;DHT22;9205;52.032;4.314;2024-02-26T01:36:40;6.40;1.00
18160;DHT22;9205;52.032;4.314;2024-02-26T01:39:07;6.60;1.00
18160;DHT22;9205;52.032;4.314;2024-02-26T01:41:37;6.50;1.00
18160;DHT22;9205;52.032;4.314;2024-02-26T01:44:04;6.40;1.00
18160;DHT22;9205;52.032;4.314;2024-02-26T01:46:34;6.60;1.00
18160;DHT22;9205;52.032;4.314;2024-02-26T01:49:02;6.40;1.00
18160;DHT22;9205;52.032;4.314;2024-02-26T01:51:31;6.40;1.00
18160;DHT22;9205;52.032;4.314;2024-02-26T01:54:00;6.40;1.00
18160;DHT22;9205;52.032;4.314;2024-02-26T01:56:30;6.60;1.00
18160;DHT22;9205;52.032;4.314;2024-02-26T01:58:58;6.40;1.00
18160;DHT22;9205;52.032;4.314;2024-02-26T02:01:27;6.60;1.00
18160;DHT22;9205;52.032;4.314;2024-02-26T02:03:58;6.60;1.00
18160;DHT22;9205;52.032;4.314;2024-02-26T02:06:27;6.40;1.00
18160;DHT22;9205;52.032;4.314;2024-02-26T02:08:55;6.40;1.00
18160;DHT22;9205;52.032;4.314;2024-02-26T02:11:22;6.40;1.00
18160;DHT22;9205;52.032;4.314;2024-02-26T02:13:49;6.50;1.00
18160;DHT22;9205;52.032;4.314;2024-02-26T02:16:16;6.50;1.00
18160;DHT22;9205;52.032;4.314;2024-02-26T02:18:43;6.60;1.00
18160;DHT22;9205;52.032;4.314;2024-02-26T02:21:12;6.40;1.00
18160;DHT22;9205;52.032;4.314;2024-02-26T02:23:39;6.60;1.00
18160;DHT22;9205;52.032;4.314;2024-02-26T02:26:11;6.60;1.00
18160;DHT22;9205;52.032;4.314;2024-02-26T02:28:40;6.50;1.00
18160;DHT22;9205;52.032;4.314;2024-02-26T02:31:07;6.60;1.00
18160;DHT22;9205;52.032;4.314;2024-02-26T02:33:35;6.60;1.00
18160;DHT22;9205;52.032;4.314;2024-02-26T02:36:03;6.40;1.00
18160;DHT22;9205;52.032;4.314;2024-02-26T02:38:36;6.60;1.00
18160;DHT22;9205;52.032;4.314;2024-02-26T02:41:03;6.50;1.00
18160;DHT22;9205;52.032;4.314;2024-02-26T02:43:31;6.50;1.00
18160;DHT22;9205;52.032;4.314;2024-02-26T02:45:58;6.60;1.00
18160;DHT22;9205;52.032;4.314;2024-02-26T02:48:25;6.50;1.00
18160;DHT22;9205;52.032;4.314;2024-02-26T02:50:52;6.60;1.00
18160;DHT22;9205;52.032;4.314;2024-02-26T02:53:19;6.60;1.00
18160;DHT22;9205;52.032;4.314;2024-02-26T02:55:48;6.50;1.00
18160;DHT22;9205;52.032;4.314;2024-02-26T02:58:15;6.60;1.00
18160;DHT22;9205;52.032;4.314;2024-02-26T03:00:42;6.50;1.00
18160;DHT22;9205;52.032;4.314;2024-02-26T03:03:09;6.60;1.00
18160;DHT22;9205;52.032;4.314;2024-02-26T03:05:37;6.60;1.00
18160;DHT22;9205;52.032;4.314;2024-02-26T03:08:04;6.50;99.90
18160;DHT22;9205;52.032;4.314;2024-02-26T03:10:32;6.60;99.90
18160;DHT22;9205;52.032;4.314;2024-02-26T03:13:00;6.50;99.90
18160;DHT22;9205;52.032;4.314;2024-02-26T03:15:28;6.60;99.90
18160;DHT22;9205;52.032;4.314;2024-02-26T03:17:55;6.60;99.90
18160;DHT22;9205;52.032;4.314;2024-02-26T03:20:22;6.50;99.90
18160;DHT22;9205;52.032;4.314;2024-02-26T03:22:49;6.60;99.90
18160;DHT22;9205;52.032;4.314;2024-02-26T03:25:17;6.60;99.90
18160;DHT22;9205;52.032;4.314;2024-02-26T03:27:44;6.50;99.90
18160;DHT22;9205;52.032;4.314;2024-02-26T03:30:12;6.50;19.70
18160;DHT22;9205;52.032;4.314;2024-02-26T03:32:40;6.60;1.00
18160;DHT22;9205;52.032;4.314;2024-02-26T03:35:08;6.60;26.00
18160;DHT22;9205;52.032;4.314;2024-02-26T03:37:35;6.60;38.10
18160;DHT22;9205;52.032;4.314;2024-02-26T03:40:03;6.60;1.00
18160;DHT22;9205;52.032;4.314;2024-02-26T03:42:31;6.50;1.00
18160;DHT22;9205;52.032;4.314;2024-02-26T03:44:58;6.50;1.00
18160;DHT22;9205;52.032;4.314;2024-02-26T03:47:27;6.50;1.00
18160;DHT22;9205;52.032;4.314;2024-02-26T03:49:54;6.60;1.00
18160;DHT22;9205;52.032;4.314;2024-02-26T03:52:22;6.60;1.00
18160;DHT22;9205;52.032;4.314;2024-02-26T03:54:49;6.50;1.00
18160;DHT22;9205;52.032;4.314;2024-02-26T03:57:16;6.60;1.00
18160;DHT22;9205;52.032;4.314;2024-02-26T03:59:43;6.60;1.00
18160;DHT22;9205;52.032;4.314;2024-02-26T04:02:10;6.50;13.20
18160;DHT22;9205;52.032;4.314;2024-02-26T04:04:39;6.50;99.90
18160;DHT22;9205;52.032;4.314;2024-02-26T04:07:06;6.50;99.90
18160;DHT22;9205;52.032;4.314;2024-02-26T04:09:33;6.60;99.90
18160;DHT22;9205;52.032;4.314;2024-02-26T04:12:01;6.60;99.90
18160;DHT22;9205;52.032;4.314;2024-02-26T04:14:28;6.40;99.90
18160;DHT22;9205;52.032;4.314;2024-02-26T04:16:55;6.60;1.00
18160;DHT22;9205;52.032;4.314;2024-02-26T04:19:22;6.60;1.00
18160;DHT22;9205;52.032;4.314;2024-02-26T04:21:51;6.40;1.00
18160;DHT22;9205;52.032;4.314;2024-02-26T04:24:18;6.50;1.00
18160;DHT22;9205;52.032;4.314;2024-02-26T04:26:45;6.50;1.00
18160;DHT22;9205;52.032;4.314;2024-02-26T04:29:12;6.40;1.00
18160;DHT22;9205;52.032;4.314;2024-02-26T04:31:40;6.40;1.00
18160;DHT22;9205;52.032;4.314;2024-02-26T04:34:08;6.50;1.00
18160;DHT22;9205;52.032;4.314;2024-02-26T04:36:35;6.60;1.00
18160;DHT22;9205;52.032;4.314;2024-02-26T04:39:03;6.40;1.00
18160;DHT22;9205;52.032;4.314;2024-02-26T04:41:32;6.60;1.00
18160;DHT22;9205;52.032;4.314;2024-02-26T04:43:59;6.50;1.00
18160;DHT22;9205;52.032;4.314;2024-02-26T04:46:26;6.40;1.00
18160;DHT22;9205;52.032;4.314;2024-02-26T04:48:53;6.60;1.00
18160;DHT22;9205;52.032;4.314;2024-02-26T04:51:21;6.40;1.00
18160;DHT22;9205;52.032;4.314;2024-02-26T04:53:48;6.50;1.00
18160;DHT22;9205;52.032;4.314;2024-02-26T04:56:16;6.40;1.00
18160;DHT22;9205;52.032;4.314;2024-02-26T04:58:43;6.50;1.00
18160;DHT22;9205;52.032;4.314;2024-02-26T05:01:11;6.40;1.00
18160;DHT22;9205;52.032;4.314;2024-02-26T05:03:38;6.40;1.00
18160;DHT22;9205;52.032;4.314;2024-02-26T05:06:05;6.50;1.00
18160;DHT22;9205;52.032;4.314;2024-02-26T05:08:33;6.30;1.00
18160;DHT22;9205;52.032;4.314;2024-02-26T05:11:01;6.40;1.00
18160;DHT22;9205;52.032;4.314;2024-02-26T05:13:31;6.40;1.00
18160;DHT22;9205;52.032;4.314;2024-02-26T05:15:58;6.40;1.00
18160;DHT22;9205;52.032;4.314;2024-02-26T05:18:25;6.50;1.00
18160;DHT22;9205;52.032;4.314;2024-02-26T05:20:52;6.40;1.00
18160;DHT22;9205;52.032;4.314;2024-02-26T05:23:19;6.40;1.00
18160;DHT22;9205;52.032;4.314;2024-02-26T05:25:48;6.50;1.00
18160;DHT22;9205;52.032;4.314;2024-02-26T05:28:15;6.30;1.00
18160;DHT22;9205;52.032;4.314;2024-02-26T05:30:44;6.40;1.00
18160;DHT22;9205;52.032;4.314;2024-02-26T05:33:11;6.30;1.00
18160;DHT22;9205;52.032;4.314;2024-02-26T05:35:38;6.30;1.00
18160;DHT22;9205;52.032;4.314;2024-02-26T05:38:06;6.50;1.00
18160;DHT22;9205;52.032;4.314;2024-02-26T05:40:33;6.50;1.00
18160;DHT22;9205;52.032;4.314;2024-02-26T05:43:00;6.40;1.00
18160;DHT22;9205;52.032;4.314;2024-02-26T05:45:27;6.40;1.00
18160;DHT22;9205;52.032;4.314;2024-02-26T05:47:56;6.50;1.00
18160;DHT22;9205;52.032;4.314;2024-02-26T05:50:23;6.40;1.00
18160;DHT22;9205;52.032;4.314;2024-02-26T05:52:50;6.40;1.00
18160;DHT22;9205;52.032;4.314;2024-02-26T05:55:18;6.40;1.00
18160;DHT22;9205;52.032;4.314;2024-02-26T05:57:45;6.40;1.00
18160;DHT22;9205;52.032;4.314;2024-02-26T06:00:13;6.40;1.00
18160;DHT22;9205;52.032;4.314;2024-02-26T06:02:41;6.40;1.00
18160;DHT22;9205;52.032;4.314;2024-02-26T06:05:09;6.50;1.00
18160;DHT22;9205;52.032;4.314;2024-02-26T06:07:37;6.30;1.00
18160;DHT22;9205;52.032;4.314;2024-02-26T06:10:05;6.50;1.00
18160;DHT22;9205;52.032;4.314;2024-02-26T06:12:35;6.30;1.00
18160;DHT22;9205;52.032;4.314;2024-02-26T06:15:03;6.50;1.00
18160;DHT22;9205;52.032;4.314;2024-02-26T06:17:30;6.40;1.00
18160;DHT22;9205;52.032;4.314;2024-02-26T06:19:57;6.30;1.00
18160;DHT22;9205;52.032;4.314;2024-02-26T06:22:27;6.50;1.00
18160;DHT22;9205;52.032;4.314;2024-02-26T06:24:54;6.40;1.00
18160;DHT22;9205;52.032;4.314;2024-02-26T06:27:21;6.30;1.00
18160;DHT22;9205;52.032;4.314;2024-02-26T06:29:49;6.40;1.00
18160;DHT22;9205;52.032;4.314;2024-02-26T06:32:17;6.30;1.00
18160;DHT22;9205;52.032;4.314;2024-02-26T06:34:44;6.50;1.00
18160;DHT22;9205;52.032;4.314;2024-02-26T06:37:11;6.30;1.00
18160;DHT22;9205;52.032;4.314;2024-02-26T06:39:39;6.40;73.20
18160;DHT22;9205;52.032;4.314;2024-02-26T06:42:07;6.40;99.90
18160;DHT22;9205;52.032;4.314;2024-02-26T06:44:34;6.40;99.90
18160;DHT22;9205;52.032;4.314;2024-02-26T06:47:01;6.20;99.90
18160;DHT22;9205;52.032;4.314;2024-02-26T06:49:29;6.40;99.90
18160;DHT22;9205;52.032;4.314;2024-02-26T06:51:56;6.30;99.90
18160;DHT22;9205;52.032;4.314;2024-02-26T06:54:24;6.40;99.90
18160;DHT22;9205;52.032;4.314;2024-02-26T06:56:52;6.40;1.00
18160;DHT22;9205;52.032;4.314;2024-02-26T06:59:20;6.40;1.00
18160;DHT22;9205;52.032;4.314;2024-02-26T07:01:48;6.20;1.00
18160;DHT22;9205;52.032;4.314;2024-02-26T07:04:15;6.20;1.00
18160;DHT22;9205;52.032;4.314;2024-02-26T07:06:42;6.20;1.00
18160;DHT22;9205;52.032;4.314;2024-02-26T07:09:09;6.10;1.00
18160;DHT22;9205;52.032;4.314;2024-02-26T07:11:37;6.40;1.00
18160;DHT22;9205;52.032;4.314;2024-02-26T07:14:08;6.30;1.00
18160;DHT22;9205;52.032;4.314;2024-02-26T07:16:36;6.20;1.00
18160;DHT22;9205;52.032;4.314;2024-02-26T07:19:03;6.30;1.00
18160;DHT22;9205;52.032;4.314;2024-02-26T07:21:31;6.20;1.00
18160;DHT22;9205;52.032;4.314;2024-02-26T07:23:58;6.10;1.00
18160;DHT22;9205;52.032;4.314;2024-02-26T07:26:25;6.30;1.00
18160;DHT22;9205;52.032;4.314;2024-02-26T07:28:52;6.10;1.00
18160;DHT22;9205;52.032;4.314;2024-02-26T07:31:21;6.30;1.00
18160;DHT22;9205;52.032;4.314;2024-02-26T07:33:48;6.10;1.00
18160;DHT22;9205;52.032;4.314;2024-02-26T07:36:15;6.10;1.00
18160;DHT22;9205;52.032;4.314;2024-02-26T07:38:42;6.40;1.00
18160;DHT22;9205;52.032;4.314;2024-02-26T07:41:09;6.30;1.00
18160;DHT22;9205;52.032;4.314;2024-02-26T07:43:36;6.40;1.00
18160;DHT22;9205;52.032;4.314;2024-02-26T07:46:04;6.10;1.00
18160;DHT22;9205;52.032;4.314;2024-02-26T07:48:32;6.10;1.00
18160;DHT22;9205;52.032;4.314;2024-02-26T07:51:00;6.10;1.00
18160;DHT22;9205;52.032;4.314;2024-02-26T07:53:28;6.10;1.00
18160;DHT22;9205;52.032;4.314;2024-02-26T07:55:56;6.30;1.00
18160;DHT22;9205;52.032;4.314;2024-02-26T07:58:23;6.10;1.00
18160;DHT22;9205;52.032;4.314;2024-02-26T08:00:50;6.10;1.00
18160;DHT22;9205;52.032;4.314;2024-02-26T08:03:17;6.20;1.00
18160;DHT22;9205;52.032;4.314;2024-02-26T08:05:47;6.20;1.00
18160;DHT22;9205;52.032;4.314;2024-02-26T08:08:14;6.10;1.00
18160;DHT22;9205;52.032;4.314;2024-02-26T08:10:41;6.20;1.00
18160;DHT22;9205;52.032;4.314;2024-02-26T08:13:08;6.10;1.00
18160;DHT22;9205;52.032;4.314;2024-02-26T08:15:36;6.10;1.00
18160;DHT22;9205;52.032;4.314;2024-02-26T08:18:04;6.20;1.00
18160;DHT22;9205;52.032;4.314;2024-02-26T08:20:32;6.30;1.00
18160;DHT22;9205;52.032;4.314;2024-02-26T08:23:00;6.20;1.00
18160;DHT22;9205;52.032;4.314;2024-02-26T08:25:27;6.20;1.00
18160;DHT22;9205;52.032;4.314;2024-02-26T08:27:55;6.10;1.00
18160;DHT22;9205;52.032;4.314;2024-02-26T08:30:22;6.30;1.00
18160;DHT22;9205;52.032;4.314;2024-02-26T08:32:49;6.30;1.00
18160;DHT22;9205;52.032;4.314;2024-02-26T08:35:16;6.10;1.00
18160;DHT22;9205;52.032;4.314;2024-02-26T08:37:44;6.10;1.00
18160;DHT22;9205;52.032;4.314;2024-02-26T08:40:13;6.10;1.00
18160;DHT22;9205;52.032;4.314;2024-02-26T08:42:41;6.10;1.00
18160;DHT22;9205;52.032;4.314;2024-02-26T08:45:09;6.30;1.00
18160;DHT22;9205;52.032;4.314;2024-02-26T08:47:36;6.10;1.00
18160;DHT22;9205;52.032;4.314;2024-02-26T08:50:04;6.30;1.00
18160;DHT22;9205;52.032;4.314;2024-02-26T08:52:32;6.30;1.00
18160;DHT22;9205;52.032;4.314;2024-02-26T08:54:59;6.30;1.00
18160;DHT22;9205;52.032;4.314;2024-02-26T08:57:28;6.30;1.00
18160;DHT22;9205;52.032;4.314;2024-02-26T08:59:57;6.20;1.00
18160;DHT22;9205;52.032;4.314;2024-02-26T09:02:24;6.10;1.00
18160;DHT22;9205;52.032;4.314;2024-02-26T09:04:51;6.10;1.00
18160;DHT22;9205;52.032;4.314;2024-02-26T09:07:20;6.20;1.00
18160;DHT22;9205;52.032;4.314;2024-02-26T09:09:48;6.30;99.90
18160;DHT22;9205;52.032;4.314;2024-02-26T09:12:15;6.30;99.90
18160;DHT22;9205;52.032;4.314;2024-02-26T09:14:43;6.30;99.90
18160;DHT22;9205;52.032;4.314;2024-02-26T09:17:11;6.40;99.90
18160;DHT22;9205;52.032;4.314;2024-02-26T09:19:38;6.40;99.90
18160;DHT22;9205;52.032;4.314;2024-02-26T09:22:06;6.30;99.90
18160;DHT22;9205;52.032;4.314;2024-02-26T09:24:33;6.40;99.90
18160;DHT22;9205;52.032;4.314;2024-02-26T09:27:00;6.50;99.90
18160;DHT22;9205;52.032;4.314;2024-02-26T09:29:27;6.50;99.90
18160;DHT22;9205;52.032;4.314;2024-02-26T09:31:56;6.40;99.90
18160;DHT22;9205;52.032;4.314;2024-02-26T09:34:23;6.40;99.90
18160;DHT22;9205;52.032;4.314;2024-02-26T09:36:50;6.60;99.90
18160;DHT22;9205;52.032;4.314;2024-02-26T09:39:17;6.40;99.90
18160;DHT22;9205;52.032;4.314;2024-02-26T09:41:47;6.70;99.90
18160;DHT22;9205;52.032;4.314;2024-02-26T09:44:18;6.60;99.90
18160;DHT22;9205;52.032;4.314;2024-02-26T09:46:47;6.70;99.90
18160;DHT22;9205;52.032;4.314;2024-02-26T09:49:17;6.50;92.00
18160;DHT22;9205;52.032;4.314;2024-02-26T09:51:47;6.70;16.30
18160;DHT22;9205;52.032;4.314;2024-02-26T09:54:17;6.60;1.00
18160;DHT22;9205;52.032;4.314;2024-02-26T09:56:46;6.50;1.00
18160;DHT22;9205;52.032;4.314;2024-02-26T09:59:17;6.70;1.00
18160;DHT22;9205;52.032;4.314;2024-02-26T10:01:46;6.60;1.00
18160;DHT22;9205;52.032;4.314;2024-02-26T10:04:16;6.50;1.00
18160;DHT22;9205;52.032;4.314;2024-02-26T10:06:45;6.70;92.40
18160;DHT22;9205;52.032;4.314;2024-02-26T10:09:13;6.70;99.90
18160;DHT22;9205;52.032;4.314;2024-02-26T10:11:42;6.70;99.90
18160;DHT22;9205;52.032;4.314;2024-02-26T10:14:10;6.60;99.90
18160;DHT22;9205;52.032;4.314;2024-02-26T10:16:37;6.70;99.90
18160;DHT22;9205;52.032;4.314;2024-02-26T10:19:05;6.60;99.90
18160;DHT22;9205;52.032;4.314;2024-02-26T10:21:33;6.70;99.90
18160;DHT22;9205;52.032;4.314;2024-02-26T10:24:01;6.60;99.90
18160;DHT22;9205;52.032;4.314;2024-02-26T10:26:28;6.70;99.90
18160;DHT22;9205;52.032;4.314;2024-02-26T10:29:00;6.80;99.90
18160;DHT22;9205;52.032;4.314;2024-02-26T10:31:28;6.70;99.90
18160;DHT22;9205;52.032;4.314;2024-02-26T10:33:56;6.90;99.90
18160;DHT22;9205;52.032;4.314;2024-02-26T10:36:26;6.80;99.90
18160;DHT22;9205;52.032;4.314;2024-02-26T10:38:55;6.90;99.90
18160;DHT22;9205;52.032;4.314;2024-02-26T10:41:22;6.90;99.90
18160;DHT22;9205;52.032;4.314;2024-02-26T10:43:50;7.00;99.90
18160;DHT22;9205;52.032;4.314;2024-02-26T10:46:18;7.10;99.90
18160;DHT22;9205;52.032;4.314;2024-02-26T10:48:50;6.90;8.80
18160;DHT22;9205;52.032;4.314;2024-02-26T10:51:20;7.00;1.00
18160;DHT22;9205;52.032;4.314;2024-02-26T10:53:58;7.10;1.00
18160;DHT22;9205;52.032;4.314;2024-02-26T10:56:28;6.90;1.00
18160;DHT22;9205;52.032;4.314;2024-02-26T10:58:57;7.00;1.00
18160;DHT22;9205;52.032;4.314;2024-02-26T11:01:26;7.10;1.00
18160;DHT22;9205;52.032;4.314;2024-02-26T11:03:55;7.00;1.00
18160;DHT22;9205;52.032;4.314;2024-02-26T11:06:23;7.10;1.00
18160;DHT22;9205;52.032;4.314;2024-02-26T11:08:53;7.10;1.00
18160;DHT22;9205;52.032;4.314;2024-02-26T11:11:23;7.10;1.00
18160;DHT22;9205;52.032;4.314;2024-02-26T11:13:53;7.10;99.90
18160;DHT22;9205;52.032;4.314;2024-02-26T11:16:22;7.00;99.90
18160;DHT22;9205;52.032;4.314;2024-02-26T11:18:49;7.00;1.00
18160;DHT22;9205;52.032;4.314;2024-02-26T11:21:21;6.90;99.90
18160;DHT22;9205;52.032;4.314;2024-02-26T11:23:53;7.10;1.00
18160;DHT22;9205;52.032;4.314;2024-02-26T11:26:23;7.00;1.00
18160;DHT22;9205;52.032;4.314;2024-02-26T11:28:53;7.10;1.00
18160;DHT22;9205;52.032;4.314;2024-02-26T11:31:24;7.10;1.00
18160;DHT22;9205;52.032;4.314;2024-02-26T11:33:53;7.00;1.00
18160;DHT22;9205;52.032;4.314;2024-02-26T11:36:24;7.00;1.00
18160;DHT22;9205;52.032;4.314;2024-02-26T11:38:51;7.00;1.00
18160;DHT22;9205;52.032;4.314;2024-02-26T11:41:18;6.80;1.00
18160;DHT22;9205;52.032;4.314;2024-02-26T11:43:51;6.90;1.00
18160;DHT22;9205;52.032;4.314;2024-02-26T11:46:26;6.90;24.70
18160;DHT22;9205;52.032;4.314;2024-02-26T11:48:56;6.80;99.90
18160;DHT22;9205;52.032;4.314;2024-02-26T11:51:34;6.70;99.90
18160;DHT22;9205;52.032;4.314;2024-02-26T11:54:02;6.70;99.90
18160;DHT22;9205;52.032;4.314;2024-02-26T11:56:29;6.90;1.00
18160;DHT22;9205;52.032;4.314;2024-02-26T11:59:04;6.60;1.00
18160;DHT22;9205;52.032;4.314;2024-02-26T12:01:43;6.80;1.00
18160;DHT22;9205;52.032;4.314;2024-02-26T12:04:16;6.80;1.00
18160;DHT22;9205;52.032;4.314;2024-02-26T12:06:47;6.70;1.00
18160;DHT22;9205;52.032;4.314;2024-02-26T12:09:34;6.50;1.00
18160;DHT22;9205;52.032;4.314;2024-02-26T12:12:04;6.70;1.00
18160;DHT22;9205;52.032;4.314;2024-02-26T12:14:37;6.50;1.00
18160;DHT22;9205;52.032;4.314;2024-02-26T12:17:06;6.60;1.00
18160;DHT22;9205;52.032;4.314;2024-02-26T12:19:35;6.70;1.00
18160;DHT22;9205;52.032;4.314;2024-02-26T12:22:03;6.70;1.00
18160;DHT22;9205;52.032;4.314;2024-02-26T12:24:33;6.60;1.00
18160;DHT22;9205;52.032;4.314;2024-02-26T12:27:01;6.70;1.00
18160;DHT22;9205;52.032;4.314;2024-02-26T12:29:28;6.80;1.00
18160;DHT22;9205;52.032;4.314;2024-02-26T12:31:57;6.80;1.00
18160;DHT22;9205;52.032;4.314;2024-02-26T12:34:25;6.90;1.00
18160;DHT22;9205;52.032;4.314;2024-02-26T12:36:54;6.90;1.00
18160;DHT22;9205;52.032;4.314;2024-02-26T12:39:21;6.90;1.00
18160;DHT22;9205;52.032;4.314;2024-02-26T12:41:49;6.90;1.00
18160;DHT22;9205;52.032;4.314;2024-02-26T12:44:16;7.00;1.00
18160;DHT22;9205;52.032;4.314;2024-02-26T12:46:44;7.10;1.00
18160;DHT22;9205;52.032;4.314;2024-02-26T12:49:15;7.00;1.00
18160;DHT22;9205;52.032;4.314;2024-02-26T12:51:44;6.90;1.00
18160;DHT22;9205;52.032;4.314;2024-02-26T12:54:12;7.00;99.90
18160;DHT22;9205;52.032;4.314;2024-02-26T12:56:40;7.10;99.90
18160;DHT22;9205;52.032;4.314;2024-02-26T12:59:08;7.10;99.90
18160;DHT22;9205;52.032;4.314;2024-02-26T13:01:35;7.10;99.90
18160;DHT22;9205;52.032;4.314;2024-02-26T13:04:04;7.10;99.90
18160;DHT22;9205;52.032;4.314;2024-02-26T13:06:33;7.20;52.20
18160;DHT22;9205;52.032;4.314;2024-02-26T13:09:01;7.30;1.00
18160;DHT22;9205;52.032;4.314;2024-02-26T13:11:29;7.10;1.00
18160;DHT22;9205;52.032;4.314;2024-02-26T13:13:57;7.10;1.00
18160;DHT22;9205;52.032;4.314;2024-02-26T13:16:25;7.10;1.00
18160;DHT22;9205;52.032;4.314;2024-02-26T13:18:53;7.30;1.00
18160;DHT22;9205;52.032;4.314;2024-02-26T13:21:20;7.30;1.00
18160;DHT22;9205;52.032;4.314;2024-02-26T13:23:52;7.30;1.00
18160;DHT22;9205;52.032;4.314;2024-02-26T13:26:22;7.20;99.90
18160;DHT22;9205;52.032;4.314;2024-02-26T13:28:59;7.30;99.90
18160;DHT22;9205;52.032;4.314;2024-02-26T13:31:27;7.30;99.90
18160;DHT22;9205;52.032;4.314;2024-02-26T13:33:55;7.30;1.00
18160;DHT22;9205;52.032;4.314;2024-02-26T13:36:22;7.40;18.70
18160;DHT22;9205;52.032;4.314;2024-02-26T13:38:54;7.40;13.30
18160;DHT22;9205;52.032;4.314;2024-02-26T13:41:22;7.60;1.00
18160;DHT22;9205;52.032;4.314;2024-02-26T13:43:50;7.50;1.00
18160;DHT22;9205;52.032;4.314;2024-02-26T13:46:18;7.50;1.00
18160;DHT22;9205;52.032;4.314;2024-02-26T13:48:45;7.50;1.00
18160;DHT22;9205;52.032;4.314;2024-02-26T13:51:13;7.60;1.00
18160;DHT22;9205;52.032;4.314;2024-02-26T13:53:40;7.70;1.00
18160;DHT22;9205;52.032;4.314;2024-02-26T13:56:10;7.70;1.00
18160;DHT22;9205;52.032;4.314;2024-02-26T13:58:37;7.60;1.00
18160;DHT22;9205;52.032;4.314;2024-02-26T14:01:05;7.60;1.00
18160;DHT22;9205;52.032;4.314;2024-02-26T14:03:32;7.60;1.00
18160;DHT22;9205;52.032;4.314;2024-02-26T14:05:59;7.70;99.90
18160;DHT22;9205;52.032;4.314;2024-02-26T14:08:27;7.60;1.00
18160;DHT22;9205;52.032;4.314;2024-02-26T14:10:54;7.60;99.90
18160;DHT22;9205;52.032;4.314;2024-02-26T14:13:23;7.60;99.90
18160;DHT22;9205;52.032;4.314;2024-02-26T14:15:50;7.70;99.90
18160;DHT22;9205;52.032;4.314;2024-02-26T14:18:18;7.70;99.90
18160;DHT22;9205;52.032;4.314;2024-02-26T14:20:45;7.60;99.90
18160;DHT22;9205;52.032;4.314;2024-02-26T14:23:12;7.60;99.90
18160;DHT22;9205;52.032;4.314;2024-02-26T14:25:39;7.50;99.90
18160;DHT22;9205;52.032;4.314;2024-02-26T14:28:07;7.70;99.90
18160;DHT22;9205;52.032;4.314;2024-02-26T14:30:36;7.50;99.90
18160;DHT22;9205;52.032;4.314;2024-02-26T14:33:03;7.60;99.90
18160;DHT22;9205;52.032;4.314;2024-02-26T14:35:31;7.50;99.90
18160;DHT22;9205;52.032;4.314;2024-02-26T14:37:58;7.60;99.90
18160;DHT22;9205;52.032;4.314;2024-02-26T14:40:27;7.60;98.70
18160;DHT22;9205;52.032;4.314;2024-02-26T14:42:55;7.50;1.00
18160;DHT22;9205;52.032;4.314;2024-02-26T14:45:23;7.40;1.00
18160;DHT22;9205;52.032;4.314;2024-02-26T14:47:52;7.50;1.00
18160;DHT22;9205;52.032;4.314;2024-02-26T14:50:19;7.50;1.00
18160;DHT22;9205;52.032;4.314;2024-02-26T14:52:46;7.50;1.00
18160;DHT22;9205;52.032;4.314;2024-02-26T14:55:14;7.50;1.00
18160;DHT22;9205;52.032;4.314;2024-02-26T14:57:41;7.50;1.00
18160;DHT22;9205;52.032;4.314;2024-02-26T15:00:12;7.50;1.00
18160;DHT22;9205;52.032;4.314;2024-02-26T15:02:39;7.40;1.00
18160;DHT22;9205;52.032;4.314;2024-02-26T15:05:08;7.40;1.00
18160;DHT22;9205;52.032;4.314;2024-02-26T15:07:36;7.40;1.00
18160;DHT22;9205;52.032;4.314;2024-02-26T15:10:06;7.40;1.00
18160;DHT22;9205;52.032;4.314;2024-02-26T15:12:34;7.40;1.00
18160;DHT22;9205;52.032;4.314;2024-02-26T15:15:01;7.50;1.00
18160;DHT22;9205;52.032;4.314;2024-02-26T15:17:29;7.40;1.00
18160;DHT22;9205;52.032;4.314;2024-02-26T15:19:58;7.40;1.00
18160;DHT22;9205;52.032;4.314;2024-02-26T15:22:26;7.40;1.00
18160;DHT22;9205;52.032;4.314;2024-02-26T15:24:53;7.40;1.00
18160;DHT22;9205;52.032;4.314;2024-02-26T15:27:21;7.40;1.00
18160;DHT22;9205;52.032;4.314;2024-02-26T15:29:48;7.30;1.00
18160;DHT22;9205;52.032;4.314;2024-02-26T15:32:21;7.40;1.00
18160;DHT22;9205;52.032;4.314;2024-02-26T15:34:50;7.40;1.00
18160;DHT22;9205;52.032;4.314;2024-02-26T15:37:17;7.30;1.00
18160;DHT22;9205;52.032;4.314;2024-02-26T15:39:46;7.30;1.00
18160;DHT22;9205;52.032;4.314;2024-02-26T15:42:14;7.40;1.00
18160;DHT22;9205;52.032;4.314;2024-02-26T15:44:41;7.40;1.00
18160;DHT22;9205;52.032;4.314;2024-02-26T15:47:09;7.30;1.00
18160;DHT22;9205;52.032;4.314;2024-02-26T15:49:36;7.40;1.00
18160;DHT22;9205;52.032;4.314;2024-02-26T15:52:03;7.30;1.00
18160;DHT22;9205;52.032;4.314;2024-02-26T15:54:31;7.20;1.00
18160;DHT22;9205;52.032;4.314;2024-02-26T15:56:59;7.30;1.00
18160;DHT22;9205;52.032;4.314;2024-02-26T15:59:27;7.30;1.00
18160;DHT22;9205;52.032;4.314;2024-02-26T16:01:54;7.30;1.00
18160;DHT22;9205;52.032;4.314;2024-02-26T16:04:22;7.20;1.00
18160;DHT22;9205;52.032;4.314;2024-02-26T16:06:53;7.20;1.00
18160;DHT22;9205;52.032;4.314;2024-02-26T16:09:22;7.30;1.00
18160;DHT22;9205;52.032;4.314;2024-02-26T16:11:49;7.30;1.00
18160;DHT22;9205;52.032;4.314;2024-02-26T16:14:37;7.30;1.00
18160;DHT22;9205;52.032;4.314;2024-02-26T16:17:12;7.30;1.00
18160;DHT22;9205;52.032;4.314;2024-02-26T16:19:44;7.20;1.00